Terminal Aerodrome Forecast
Issued by NWS

Home | Current Version | Previous Version | Text Only | Print | Product List | Glossary On
Versions: 1 2 3 4 5 6 7 8 9 10 11 12 13 14 15 16 17 18 19 20 21 22 23 24 25 26 27 28 29 30 31 32 33 34 35 36 37 38 39
000
FTUS43 KPAH 180500
TAFOWB
TAF
KOWB 180529Z 1806/1906 VRB02KT P6SM OVC090
     FM181000 VRB03KT P6SM OVC040
      TEMPO 1810/1814 4SM -SNPL
     FM181400 VRB03KT 5SM BR SCT010 OVC030
      TEMPO 1814/1818 3SM -SN BKN010
     FM182300 34003KT P6SM OVC050=

USA.gov is the U.S. government's official web portal to all federal, state and local government web resources and services.